Latest Weather Observations for Collie East

IDW60801

Issued at 11:33 pm WST Thursday 17 August 2017 (issued every 30 minutes, with the page automatically refreshed every 10 minutes)

About weather observations | Map of weather stations | Latest weather observations for WA | Other Formats
Station Details ID: 009994 Name: COLLIE EAST Lat: -33.36 Lon: 116.17 Height: 200.0 m
Data from the previous 72 hours. | See also: Recent months at Collie East
Date/Time
WST
Temp
°C
App
Temp
°C
Dew
Point
°C
Rel
Hum
%
Delta-T
°C
Wind Press
QNH
hPa
Press
MSL
hPa
Rain since
9am
mm
Dir  Spd
km/h
Gust
km/h
Spd
kts
Gust
kts
17/11:30pm 9.7 8.6 8.3 91 0.7 N 4 6 2 3 - - 3.6
17/11:00pm 9.9 8.2 8.5 91 0.7 N 7 11 4 6 - - 3.4
17/10:30pm 9.9 7.9 8.5 91 0.7 N 9 13 5 7 - - 3.4
17/10:00pm 10.1 9.4 8.7 91 0.7 NW 2 11 1 6 - - 3.4
17/09:30pm 10.1 8.1 8.5 90 0.8 N 9 15 5 8 - - 3.4
17/09:00pm 9.9 8.2 8.3 90 0.8 N 7 11 4 6 - - 3.4
17/08:30pm 10.0 8.5 8.4 90 0.8 N 6 9 3 5 - - 3.4
17/08:00pm 10.3 8.7 8.7 90 0.8 N 7 15 4 8 - - 3.4
17/07:30pm 10.5 8.5 8.8 89 0.8 N 9 13 5 7 - - 3.0
17/07:00pm 10.5 8.5 8.8 89 0.8 N 9 13 5 7 - - 3.0
17/06:30pm 10.8 9.3 9.1 89 0.9 NNW 7 11 4 6 - - 2.6
17/06:00pm 10.8 9.5 9.2 90 0.8 N 6 11 3 6 - - 2.6
17/05:30pm 11.0 9.5 9.3 89 0.9 NNW 7 11 4 6 - - 2.6
17/05:00pm 11.3 9.8 9.2 87 1.1 NW 7 13 4 7 - - 1.8
17/04:30pm 12.1 10.1 8.6 79 1.8 NW 9 17 5 9 - - 0.6
17/04:00pm 12.3 10.0 9.0 80 1.7 NW 11 20 6 11 - - 0.6
17/03:30pm 12.6 10.7 8.9 78 1.9 NW 9 15 5 8 - - 0.4
17/03:00pm 13.2 9.7 7.4 68 2.9 NNW 15 22 8 12 - - 0.2
17/02:30pm 13.2 10.0 8.5 73 2.4 NNW 15 24 8 13 - - 0.2
17/02:00pm 11.8 8.6 8.5 80 1.6 NNW 15 22 8 12 - - 0.2
17/01:30pm 12.1 8.8 8.0 76 2.0 NNW 15 28 8 15 - - 0.2
17/01:00pm 12.1 8.6 7.0 71 2.5 WNW 15 33 8 18 - - 0.2
17/12:30pm 13.0 9.4 6.6 65 3.1 NNW 15 28 8 15 - - 0.2
17/12:00pm 12.6 9.8 7.1 69 2.7 NNW 11 20 6 11 - - 0.2
17/11:30am 12.6 9.5 7.3 70 2.6 NW 13 20 7 11 - - 0.2
17/11:00am 11.5 9.0 8.4 81 1.5 NNW 11 20 6 11 - - 0.2
17/10:30am 10.7 8.1 7.8 82 1.4 N 11 17 6 9 - - 0.2
17/10:00am 10.3 8.2 8.1 86 1.1 NNW 9 15 5 8 - - 0.2
17/09:30am 8.8 7.1 7.6 92 0.6 N 6 13 3 7 - - 0.2
17/09:00am 7.7 5.2 6.6 93 0.5 NNW 9 19 5 10 - - 0.4
17/08:30am 6.9 6.0 6.0 94 0.4 CALM 0 0 0 0 - - 0.0
17/08:00am 4.4 3.0 3.5 94 0.4 CALM 0 0 0 0 - - 0.0
17/07:30am 3.2 1.6 2.3 94 0.4 CALM 0 0 0 0 - - 0.0
17/07:00am 2.8 1.1 1.8 93 0.4 CALM 0 0 0 0 - - 0.0
17/06:30am 3.5 1.9 2.6 94 0.4 CALM 0 0 0 0 - - 0.0
17/06:00am 3.1 1.5 2.2 94 0.4 CALM 0 0 0 0 - - 0.0
17/05:30am 2.5 0.7 1.5 93 0.4 CALM 0 0 0 0 - - 0.0
17/05:00am 1.3 -0.6 0.3 93 0.4 CALM 0 0 0 0 - - 0.0
17/04:30am 0.7 -1.3 -0.3 93 0.4 CALM 0 0 0 0 - - 0.0
17/04:00am 0.7 -1.3 -0.4 92 0.4 CALM 0 0 0 0 - - 0.0
17/03:30am 0.9 -1.1 -0.2 92 0.4 CALM 0 0 0 0 - - 0.0
17/03:00am 1.1 -0.9 -0.1 92 0.4 CALM 0 0 0 0 - - 0.0
17/02:30am 1.2 -0.8 0.0 92 0.4 CALM 0 0 0 0 - - 0.0
17/02:00am 1.3 -0.7 0.1 92 0.4 CALM 0 0 0 0 - - 0.0
17/01:30am 1.4 -0.6 0.2 92 0.4 CALM 0 0 0 0 - - 0.0
17/01:00am 1.8 -0.1 0.5 91 0.5 CALM 0 0 0 0 - - 0.0
17/12:30am 2.2 0.4 0.9 91 0.5 CALM 0 0 0 0 - - 0.0
17/12:00am 2.4 0.6 1.1 91 0.5 CALM 0 0 0 0 - - 0.0
 
Date/Time
WST
Temp
°C
App
Temp
°C
Dew
Point
°C
Rel
Hum
%
Delta-T
°C
Wind Press
QNH
hPa
Press
MSL
hPa
Rain since
9am
mm
Dir  Spd
km/h
Gust
km/h
Spd
kts
Gust
kts
16/11:30pm 3.0 1.3 1.7 91 0.5 CALM 0 0 0 0 - - 0.0
16/11:00pm 3.2 1.5 1.7 90 0.6 CALM 0 0 0 0 - - 0.0
16/10:30pm 4.1 2.5 2.6 90 0.6 CALM 0 0 0 0 - - 0.0
16/10:00pm 4.4 2.9 2.8 89 0.7 CALM 0 0 0 0 - - 0.0
16/09:30pm 4.9 3.4 2.9 87 0.8 CALM 0 0 0 0 - - 0.0
16/09:00pm 5.6 4.1 3.1 84 1.0 CALM 0 0 0 0 - - 0.0
16/08:30pm 6.6 3.9 3.6 81 1.3 NNW 7 9 4 5 - - 0.0
16/08:00pm 7.7 5.2 3.6 75 1.8 WNW 6 11 3 6 - - 0.0
16/07:30pm 7.6 6.2 3.5 75 1.8 CALM 0 0 0 0 - - 0.0
16/07:00pm 8.4 5.9 3.5 71 2.1 WSW 6 15 3 8 - - 0.0
16/06:30pm 8.9 6.2 2.9 66 2.6 W 6 13 3 7 - - 0.0
16/06:00pm 9.5 6.6 2.8 63 2.9 WSW 7 15 4 8 - - 0.0
16/05:30pm 10.5 7.3 3.1 60 3.2 W 9 20 5 11 - - 0.0
16/05:00pm 11.4 7.7 2.4 54 3.9 W 11 26 6 14 - - 0.0
16/04:30pm 12.2 7.3 1.8 49 4.5 W 17 32 9 17 - - 0.0
16/04:00pm 12.1 8.5 3.1 54 4.0 W 11 24 6 13 - - 0.0
16/03:30pm 13.1 9.2 3.2 51 4.5 W 13 24 7 13 - - 0.0
16/03:00pm 13.0 8.2 2.5 49 4.6 W 17 32 9 17 - - 0.0
16/02:30pm 13.0 7.9 1.0 44 5.1 WSW 17 35 9 19 - - 0.0
16/02:00pm 12.9 7.7 0.3 42 5.3 W 17 33 9 18 - - 0.0
16/01:30pm 13.1 7.7 2.6 49 4.7 WSW 20 46 11 25 - - 0.0
16/01:00pm 13.7 8.3 1.4 43 5.3 W 19 35 10 19 - - 0.0
16/12:30pm 12.9 7.7 2.2 48 4.7 WSW 19 33 10 18 - - 0.0
16/12:00pm 13.4 8.1 1.7 45 5.1 W 19 35 10 19 - - 0.0
16/11:30am 12.8 6.9 1.8 47 4.8 WSW 22 41 12 22 - - 0.0
16/11:00am 11.8 7.0 2.5 53 4.1 WSW 17 32 9 17 - - 0.0
16/10:30am 12.5 8.8 4.7 59 3.6 W 13 30 7 16 - - 0.0
16/10:00am 12.0 7.6 5.0 62 3.2 W 17 37 9 20 - - 0.0
16/09:30am 11.3 7.3 5.0 65 2.9 WSW 15 33 8 18 - - 0.0
16/09:00am 10.6 6.5 4.5 66 2.8 WSW 15 26 8 14 - - 2.2
16/08:30am 9.8 6.4 4.0 67 2.6 W 11 19 6 10 - - 2.2
16/08:00am 8.6 6.9 3.8 72 2.1 NW 2 6 1 3 - - 2.0
16/07:30am 7.8 5.2 3.1 72 2.0 WNW 6 13 3 7 - - 2.0
16/07:00am 7.6 4.9 2.9 72 2.0 WNW 6 9 3 5 - - 2.0
16/06:30am 7.9 5.2 3.8 75 1.8 W 7 15 4 8 - - 2.0
16/06:00am 8.2 5.3 4.4 77 1.7 W 9 17 5 9 - - 2.0
16/05:30am 8.3 5.7 4.3 76 1.8 W 7 13 4 7 - - 2.0
16/05:00am 8.4 5.4 4.2 75 1.9 W 9 19 5 10 - - 2.0
16/04:30am 8.7 5.4 4.5 75 1.9 W 11 20 6 11 - - 2.0
16/04:00am 9.0 6.6 6.8 86 1.0 WSW 9 20 5 11 - - 2.0
16/03:30am 9.1 7.4 7.4 89 0.8 WNW 6 9 3 5 - - 2.0
16/03:00am 9.2 7.3 7.5 89 0.8 WNW 7 13 4 7 - - 2.0
16/02:30am 9.4 7.2 7.8 90 0.8 WSW 9 19 5 10 - - 1.8
16/02:00am 9.5 7.7 7.9 90 0.8 W 7 13 4 7 - - 1.8
16/01:30am 9.5 7.3 7.9 90 0.8 WNW 9 15 5 8 - - 1.8
16/01:00am 9.4 7.2 7.8 90 0.8 W 9 20 5 11 - - 1.6
16/12:30am 9.6 7.4 8.0 90 0.8 WNW 9 17 5 9 - - 1.2
16/12:00am 8.8 7.1 7.4 91 0.7 WNW 6 11 3 6 - - 0.4
 
Date/Time
WST
Temp
°C
App
Temp
°C
Dew
Point
°C
Rel
Hum
%
Delta-T
°C
Wind Press
QNH
hPa
Press
MSL
hPa
Rain since
9am
mm
Dir  Spd
km/h
Gust
km/h
Spd
kts
Gust
kts
15/11:30pm 8.5 6.7 7.0 90 0.7 NNW 6 9 3 5 - - 0.4
15/11:00pm 8.7 6.3 7.2 90 0.7 N 9 13 5 7 - - 0.4
15/10:30pm 8.4 6.5 6.9 90 0.7 N 6 7 3 4 - - 0.4
15/10:00pm 9.0 7.0 7.3 89 0.8 NNW 7 9 4 5 - - 0.4
15/09:30pm 9.1 7.1 7.2 88 0.9 NNW 7 9 4 5 - - 0.4
15/09:00pm 9.4 7.4 7.3 87 1.0 WNW 7 13 4 7 - - 0.4
15/08:30pm 8.9 7.4 6.9 87 0.9 W 4 9 2 5 - - 0.4
15/08:00pm 9.5 7.7 7.3 86 1.1 NW 6 9 3 5 - - 0.4
15/07:30pm 9.4 7.6 7.2 86 1.0 NNW 6 11 3 6 - - 0.4
15/07:00pm 9.9 7.9 7.3 84 1.2 WNW 7 13 4 7 - - 0.4
15/06:30pm 9.9 8.1 7.3 84 1.2 WNW 6 9 3 5 - - 0.4
15/06:00pm 10.4 8.0 6.9 79 1.7 W 9 17 5 9 - - 0.4
15/05:30pm 10.9 7.7 7.0 77 1.9 W 13 28 7 15 - - 0.4
15/05:00pm 11.2 8.4 6.9 75 2.1 W 11 20 6 11 - - 0.4
15/04:30pm 11.8 8.5 6.3 69 2.6 W 13 28 7 15 - - 0.4
15/04:00pm 11.7 9.2 8.0 78 1.8 W 11 20 6 11 - - 0.4
15/03:30pm 13.5 10.1 5.7 59 3.7 W 13 26 7 14 - - 0.2
15/03:00pm 13.0 8.8 5.7 61 3.5 W 17 39 9 21 - - 0.2
15/02:30pm 12.4 9.1 6.2 66 3.0 W 13 32 7 17 - - 0.2
15/02:00pm 14.7 11.0 6.3 57 4.1 W 15 35 8 19 - - 0.2
15/01:30pm 13.1 9.0 6.0 62 3.4 W 17 33 9 18 - - 0.2
15/01:00pm 13.9 9.1 5.8 58 3.9 WSW 20 33 11 18 - - 0.2
15/12:30pm 13.6 8.6 4.7 55 4.2 WNW 20 39 11 21 - - 0.2
15/12:00pm 12.9 9.5 5.8 62 3.4 W 13 26 7 14 - - 0.2
15/11:30am 12.0 8.4 6.9 71 2.5 W 15 33 8 18 - - 0.2
15/11:00am 13.2 9.5 6.5 64 3.2 W 15 33 8 18 - - 0.0
15/10:30am 12.5 8.8 6.5 67 2.9 WSW 15 32 8 17 - - 0.0
15/10:00am 12.3 8.2 6.1 66 3.0 W 17 32 9 17 - - 0.0
15/09:30am 11.8 8.6 6.7 71 2.5 W 13 28 7 15 - - 0.0
15/09:00am 10.6 7.7 6.7 77 1.9 W 11 20 6 11 - - 23.8
15/08:30am 9.2 7.1 6.5 83 1.3 W 7 15 4 8 - - 23.8
15/08:00am 8.5 6.4 6.5 87 0.9 NW 7 9 4 5 - - 23.8
15/07:30am 8.1 5.8 5.7 85 1.1 WNW 7 13 4 7 - - 23.8
15/07:00am 8.5 5.8 5.4 81 1.4 W 9 22 5 12 - - 23.6
15/06:30am 8.7 5.7 5.8 82 1.3 WNW 11 20 6 11 - - 23.6
15/06:00am 8.6 6.0 5.9 83 1.2 W 9 17 5 9 - - 23.4
15/05:30am 8.6 6.0 5.9 83 1.2 W 9 19 5 10 - - 23.4
15/05:00am 8.2 5.9 5.8 85 1.1 W 7 13 4 7 - - 23.4
15/04:30am 8.3 6.1 6.1 86 1.0 WSW 7 15 4 8 - - 23.4
15/04:00am 8.4 5.8 5.9 84 1.1 W 9 17 5 9 - - 23.4
15/03:30am 8.9 6.4 6.5 85 1.1 WSW 9 19 5 10 - - 22.8
15/03:00am 8.8 6.6 6.4 85 1.1 W 7 13 4 7 - - 22.8
15/02:30am 8.8 6.7 6.6 86 1.0 NW 7 13 4 7 - - 21.8
15/02:00am 8.9 6.8 6.7 86 1.0 WNW 7 13 4 7 - - 21.6
15/01:30am 9.3 6.0 6.6 83 1.3 WNW 13 22 7 12 - - 21.6
15/01:00am 9.0 6.6 6.8 86 1.0 WNW 9 20 5 11 - - 21.4
15/12:30am 8.6 6.6 6.4 86 1.0 WNW 6 13 3 7 - - 20.8
15/12:00am 8.9 6.3 6.2 83 1.3 W 9 17 5 9 - - 20.6

Other Formats:

Comma delimited format used in spreadsheet applications
http://www.bom.gov.au/fwo/IDW60801/IDW60801.95621.axf

JavaScript Object Notation format (JSON) in row-major order
http://www.bom.gov.au/fwo/IDW60801/IDW60801.95621.json